createdAt,value
2023-04-03T00:00:02.431Z,85.92
2023-04-03T00:01:42.833Z,85.94
2023-04-03T00:03:23.195Z,85.87
2023-04-03T00:05:03.601Z,86.16
2023-04-03T00:06:43.887Z,86.2
2023-04-03T00:08:24.188Z,86.05
2023-04-03T00:10:04.492Z,86.23
2023-04-03T00:11:44.798Z,86.37
2023-04-03T00:13:25.115Z,86.19
2023-04-03T00:15:05.417Z,85.69
2023-04-03T00:16:45.780Z,86.31
2023-04-03T00:18:26.079Z,86.46
2023-04-03T00:20:06.399Z,86.59
2023-04-03T00:21:46.847Z,86.73
2023-04-03T00:23:27.206Z,86.92
2023-04-03T00:25:07.658Z,87.32
2023-04-03T00:26:48.037Z,87.12
2023-04-03T00:28:28.334Z,87.28
2023-04-03T00:30:08.870Z,87.57
2023-04-03T00:31:49.244Z,88.01
2023-04-03T00:33:29.619Z,88.21
2023-04-03T00:35:09.989Z,88.1
2023-04-03T00:36:50.571Z,88.1
2023-04-03T00:38:30.836Z,88.36
2023-04-03T00:40:11.275Z,88.73
2023-04-03T00:41:51.614Z,88.26
2023-04-03T00:43:32.013Z,88.08
2023-04-03T00:45:12.428Z,88.52
2023-04-03T00:46:52.756Z,89.65
2023-04-03T00:48:33.154Z,90.36
2023-04-03T00:50:13.635Z,89.99
2023-04-03T00:51:53.974Z,89.37
2023-04-03T00:53:34.328Z,88.98
2023-04-03T00:55:14.693Z,89.03
2023-04-03T00:56:55.074Z,89.67
2023-04-03T00:58:35.443Z,89.9
2023-04-03T01:00:15.805Z,89.98
2023-04-03T01:01:56.263Z,89.79
2023-04-03T01:03:36.581Z,90.46
2023-04-03T01:05:16.950Z,90.59
2023-04-03T01:06:57.384Z,90.28
2023-04-03T01:08:37.753Z,90.48
2023-04-03T01:10:18.071Z,90.92
2023-04-03T01:11:58.410Z,91.18
2023-04-03T01:13:38.821Z,91.44
2023-04-03T01:15:19.185Z,91.44
2023-04-03T01:16:59.640Z,91.42
2023-04-03T01:18:40.105Z,91.62
2023-04-03T01:20:20.562Z,91.86
2023-04-03T01:22:00.861Z,92.35
2023-04-03T01:23:41.345Z,92.94
2023-04-03T01:25:21.695Z,93.56
2023-04-03T01:27:02.064Z,93.61
2023-04-03T01:28:42.429Z,93.46
2023-04-03T01:30:22.832Z,93.24
2023-04-03T01:32:03.261Z,93.3
2023-04-03T01:33:43.603Z,93.67
2023-04-03T01:35:23.998Z,93.83
2023-04-03T01:37:04.340Z,93.96
2023-04-03T01:38:44.633Z,93.83
2023-04-03T01:40:24.935Z,94.42
2023-04-03T01:42:05.262Z,95.01
2023-04-03T01:43:45.581Z,94.92
2023-04-03T01:45:25.894Z,95.38
2023-04-03T01:47:06.264Z,95.56
2023-04-03T01:48:46.559Z,95.9
2023-04-03T01:50:26.937Z,95.44
2023-04-03T01:52:07.373Z,95.3
2023-04-03T01:53:47.773Z,95.42
2023-04-03T01:55:28.151Z,95.45
2023-04-03T01:57:08.534Z,95.38
2023-04-03T01:58:48.954Z,95.4
2023-04-03T02:00:29.346Z,95.34
2023-04-03T02:02:09.789Z,95.52
2023-04-03T02:03:50.147Z,95.56
2023-04-03T02:05:30.472Z,95.55
2023-04-03T02:07:10.827Z,95.79
2023-04-03T02:08:51.233Z,95.88
2023-04-03T02:10:31.620Z,95.88
2023-04-03T02:12:12.066Z,95.83
2023-04-03T02:13:52.438Z,95.7
2023-04-03T02:15:32.765Z,95.73
2023-04-03T02:17:13.166Z,95.93
2023-04-03T02:18:53.609Z,96.04
2023-04-03T02:20:34.046Z,95.93
2023-04-03T02:22:14.439Z,95.92
2023-04-03T02:23:56.020Z,95.8
2023-04-03T02:25:37.996Z,95.44
2023-04-03T02:27:15.430Z,95.28
2023-04-03T02:28:55.742Z,94.92
2023-04-03T02:30:36.324Z,94.87
2023-04-03T02:32:16.334Z,94.82
2023-04-03T02:33:56.606Z,94.99
2023-04-03T02:35:37.062Z,95.09
2023-04-03T02:37:17.459Z,95.31
2023-04-03T02:38:57.904Z,95.65
2023-04-03T02:40:38.599Z,96.04
2023-04-03T02:42:18.686Z,96
2023-04-03T02:43:59.033Z,95.51
2023-04-03T02:45:39.443Z,95.25
2023-04-03T02:47:19.815Z,95.35
2023-04-03T02:49:00.212Z,95.54
2023-04-03T02:50:40.588Z,95.45
2023-04-03T02:52:21.055Z,95.68
2023-04-03T02:54:01.470Z,95.44
2023-04-03T02:55:41.840Z,95.42
2023-04-03T02:57:22.276Z,95.37
2023-04-03T02:59:02.593Z,95.41
2023-04-03T03:00:43.051Z,95.7
2023-04-03T03:02:23.458Z,95.62
2023-04-03T03:04:03.839Z,95.43
2023-04-03T03:05:44.240Z,95.4
2023-04-03T03:07:24.612Z,95.49
2023-04-03T03:09:04.922Z,95.77
2023-04-03T03:10:45.360Z,96.15
2023-04-03T03:12:25.921Z,96.8
2023-04-03T03:14:06.113Z,97.12
2023-04-03T03:15:46.502Z,96.78
2023-04-03T03:17:26.737Z,96.19
2023-04-03T03:19:07.143Z,95.5
2023-04-03T03:20:47.465Z,95.19
2023-04-03T03:22:27.852Z,95.31
2023-04-03T03:24:08.179Z,95.45
2023-04-03T03:25:48.601Z,95.27
2023-04-03T03:27:29.088Z,95.35
2023-04-03T03:29:09.390Z,95.59
2023-04-03T03:30:49.736Z,95.8
2023-04-03T03:32:30.100Z,95.59
2023-04-03T03:34:10.393Z,95.44
2023-04-03T03:35:50.815Z,95.82
2023-04-03T03:37:31.274Z,96.14
2023-04-03T03:39:11.635Z,96.5
2023-04-03T03:40:52.060Z,96.53
2023-04-03T03:42:32.431Z,96.6
2023-04-03T03:44:14.327Z,96.95
2023-04-03T03:45:53.350Z,96.91
2023-04-03T03:47:33.721Z,96.56
2023-04-03T03:49:14.156Z,95.81
2023-04-03T03:50:54.590Z,95.35
2023-04-03T03:52:35.049Z,95.61
2023-04-03T03:54:15.396Z,95.54
2023-04-03T03:55:55.775Z,95.02
2023-04-03T03:57:36.284Z,94.39
2023-04-03T03:59:16.630Z,93.48
2023-04-03T04:00:57.022Z,93.2
2023-04-03T04:02:37.458Z,92.87
2023-04-03T04:04:17.684Z,93.04
2023-04-03T04:05:58.055Z,92.97
2023-04-03T04:07:38.229Z,92.87
2023-04-03T04:09:18.583Z,92.96
2023-04-03T04:10:58.875Z,92.83
2023-04-03T04:12:39.279Z,93.09
2023-04-03T04:14:19.679Z,92.87
2023-04-03T04:15:59.984Z,93.31
2023-04-03T04:17:40.489Z,93.68
2023-04-03T04:19:20.884Z,93.27
2023-04-03T04:21:01.274Z,93.19
2023-04-03T04:22:41.651Z,93.44
2023-04-03T04:24:22.021Z,92.73
2023-04-03T04:26:02.422Z,92.12
2023-04-03T04:27:42.863Z,93.33
2023-04-03T04:29:23.167Z,93.49
2023-04-03T04:31:03.568Z,93.29
2023-04-03T04:32:43.910Z,93.12
2023-04-03T04:34:24.199Z,93.11
2023-04-03T04:36:04.693Z,93.04
2023-04-03T04:37:44.996Z,93.28
2023-04-03T04:39:25.289Z,93.31
2023-04-03T04:41:05.662Z,93.33
2023-04-03T04:42:46.116Z,93.9
2023-04-03T04:44:26.446Z,94.01
2023-04-03T04:46:06.886Z,94.49
2023-04-03T04:47:47.346Z,94.57
2023-04-03T04:49:27.728Z,94.58
2023-04-03T04:51:08.121Z,94.34
2023-04-03T04:52:48.426Z,94.45
2023-04-03T04:54:28.717Z,94.84
2023-04-03T04:56:09.019Z,95.24
2023-04-03T04:57:49.423Z,95.63
2023-04-03T04:59:29.767Z,96
2023-04-03T05:01:10.147Z,95.94
2023-04-03T05:02:50.633Z,96.33
2023-04-03T05:04:31.047Z,96.85
2023-04-03T05:06:11.405Z,97.02
2023-04-03T05:07:51.829Z,96.81
2023-04-03T05:09:32.211Z,96.44
2023-04-03T05:11:12.571Z,96.37
2023-04-03T05:12:52.968Z,96.86
2023-04-03T05:14:33.340Z,97.01
2023-04-03T05:16:13.814Z,96.95
2023-04-03T05:17:54.225Z,96.83
2023-04-03T05:19:34.533Z,97.22
2023-04-03T05:21:14.893Z,97.53
2023-04-03T05:22:55.194Z,97.38
2023-04-03T05:24:35.587Z,97.11
2023-04-03T05:26:16.072Z,96.95
2023-04-03T05:27:56.380Z,96.59
2023-04-03T05:29:36.901Z,97.02
2023-04-03T05:31:17.191Z,97.14
2023-04-03T05:32:57.523Z,97.18
2023-04-03T05:34:37.905Z,97.25
2023-04-03T05:36:18.313Z,97.07
2023-04-03T05:37:58.651Z,96.85
2023-04-03T05:39:39.001Z,97.35
2023-04-03T05:41:19.366Z,97.71
2023-04-03T05:42:59.820Z,97.74
2023-04-03T05:44:40.148Z,97.37
2023-04-03T05:46:20.586Z,96.98
2023-04-03T05:48:00.935Z,96.93
2023-04-03T05:49:41.258Z,96.98
2023-04-03T05:51:21.635Z,97.05
2023-04-03T05:53:02.062Z,97.22
2023-04-03T05:54:42.446Z,97.11
2023-04-03T05:56:22.830Z,96.9
2023-04-03T05:58:03.279Z,96.86
2023-04-03T05:59:43.621Z,96.81
2023-04-03T06:01:23.989Z,96.83
2023-04-03T06:03:04.558Z,97.06
2023-04-03T06:04:44.850Z,97.17
2023-04-03T06:06:25.109Z,96.57
2023-04-03T06:08:05.506Z,95.97
2023-04-03T06:09:45.987Z,95.7
2023-04-03T06:11:26.362Z,95.7
2023-04-03T06:13:06.728Z,95.63
2023-04-03T06:14:47.116Z,95.41
2023-04-03T06:16:27.695Z,95.52
2023-04-03T06:18:08.190Z,95.49
2023-04-03T06:19:48.254Z,95.32
2023-04-03T06:21:28.525Z,95.09
2023-04-03T06:23:09.159Z,93.96
2023-04-03T06:24:49.157Z,93.08
2023-04-03T06:26:29.590Z,92.53
2023-04-03T06:28:10.003Z,91.43
2023-04-03T06:29:50.384Z,90.77
2023-04-03T06:31:31.042Z,89.87
2023-04-03T06:33:11.231Z,87.83
2023-04-03T06:34:51.499Z,86.68
2023-04-03T06:36:31.914Z,85.94
2023-04-03T06:38:12.356Z,85.14
2023-04-03T06:39:52.742Z,83.89
2023-04-03T06:41:33.886Z,83.23
2023-04-03T06:43:13.737Z,83
2023-04-03T06:44:53.791Z,81.48
2023-04-03T06:46:34.212Z,81.14
2023-04-03T06:48:14.737Z,81.46
2023-04-03T06:49:54.985Z,80.63
2023-04-03T06:51:35.329Z,80
2023-04-03T06:53:15.740Z,79.47
2023-04-03T06:54:56.210Z,79.64
2023-04-03T06:56:36.525Z,77.33
2023-04-03T06:58:16.952Z,77.67
2023-04-03T06:59:57.325Z,78.14
2023-04-03T07:01:37.673Z,73.31
2023-04-03T07:03:18.080Z,72.66
2023-04-03T07:04:58.468Z,71.79
2023-04-03T07:06:38.852Z,73.38
2023-04-03T07:08:19.304Z,72.75
2023-04-03T07:09:59.765Z,71.84
2023-04-03T07:11:40.166Z,71.38
2023-04-03T07:13:20.635Z,71.14
2023-04-03T07:15:01.010Z,70.66
2023-04-03T07:16:42.699Z,68.94
2023-04-03T07:18:21.796Z,67.85
2023-04-03T07:20:02.205Z,66.97
2023-04-03T07:21:42.653Z,66.75
2023-04-03T07:23:23.083Z,66.43
2023-04-03T07:25:03.470Z,65.67
2023-04-03T07:26:43.834Z,67.06
2023-04-03T07:28:24.232Z,64.64
2023-04-03T07:30:04.618Z,62.93
2023-04-03T07:31:45.010Z,67.75
2023-04-03T07:33:25.300Z,64.54
2023-04-03T07:35:05.724Z,63.69
2023-04-03T07:36:46.120Z,62.51
2023-04-03T07:38:26.427Z,63.67
2023-04-03T07:40:06.760Z,59.53
2023-04-03T07:41:47.014Z,62.85
2023-04-03T07:43:27.345Z,59.71
2023-04-03T07:45:07.642Z,62.05
2023-04-03T07:46:47.979Z,60.84
2023-04-03T07:48:28.264Z,60.83
2023-04-03T07:50:08.555Z,59.52
2023-04-03T07:51:48.973Z,58.73
2023-04-03T07:53:29.301Z,55.46
2023-04-03T07:55:09.790Z,54
2023-04-03T07:56:50.151Z,53.42
2023-04-03T07:58:30.542Z,53.99
2023-04-03T08:00:10.899Z,52.7
2023-04-03T08:01:51.295Z,52.72
2023-04-03T08:03:31.811Z,51.24
2023-04-03T08:05:12.103Z,50.42
2023-04-03T08:06:52.535Z,50.57
2023-04-03T08:08:32.957Z,51.32
2023-04-03T08:10:13.295Z,50.76
2023-04-03T08:11:53.765Z,50.12
2023-04-03T08:13:34.223Z,48.83
2023-04-03T08:15:14.669Z,50.01
2023-04-03T08:16:55.222Z,48.88
2023-04-03T08:18:35.581Z,51.1
2023-04-03T08:20:15.912Z,51.15
2023-04-03T08:21:56.443Z,50.41
2023-04-03T08:23:36.613Z,49.92
2023-04-03T08:25:17.137Z,50.64
2023-04-03T08:26:57.450Z,47.86
2023-04-03T08:28:37.845Z,47.08
2023-04-03T08:30:18.219Z,51.31
2023-04-03T08:31:58.698Z,46.89
2023-04-03T08:33:39.090Z,47.34
2023-04-03T08:35:19.434Z,46.8
2023-04-03T08:36:59.779Z,47.66
2023-04-03T08:38:40.141Z,48.82
2023-04-03T08:40:20.593Z,48.6
2023-04-03T08:42:01.013Z,46.52
2023-04-03T08:43:41.433Z,46.69
2023-04-03T08:45:21.837Z,46.8
2023-04-03T08:47:02.143Z,46.95
2023-04-03T08:48:42.516Z,45.13
2023-04-03T08:50:22.930Z,46.05
2023-04-03T08:52:03.285Z,44.43
2023-04-03T08:53:43.625Z,44.88
2023-04-03T08:55:23.979Z,46.55
2023-04-03T08:57:04.471Z,47.43
2023-04-03T08:58:44.774Z,45.34
2023-04-03T09:00:25.084Z,50.43
2023-04-03T09:02:05.567Z,46.75
2023-04-03T09:03:45.900Z,43.11
2023-04-03T09:05:26.160Z,44.12
2023-04-03T09:07:06.481Z,44.02
2023-04-03T09:08:46.771Z,40.5
2023-04-03T09:10:27.048Z,44.99
2023-04-03T09:12:07.395Z,41.12
2023-04-03T09:13:47.663Z,43.23
2023-04-03T09:15:38.556Z,41.26
2023-04-03T09:17:08.274Z,43.43
2023-04-03T09:18:48.583Z,44.44
2023-04-03T09:20:28.838Z,45.29
2023-04-03T09:22:09.170Z,45.29
2023-04-03T09:23:49.463Z,45.3
2023-04-03T09:25:31.658Z,43.92
2023-04-03T09:27:10.228Z,45.14
2023-04-03T09:28:51.249Z,47.03
2023-04-03T09:30:30.787Z,47.02
2023-04-03T09:32:11.166Z,45.1
2023-04-03T09:33:51.465Z,46.3
2023-04-03T09:35:40.429Z,48.06
2023-04-03T09:37:12.154Z,50.25
2023-04-03T09:38:52.580Z,50.55
2023-04-03T09:40:32.979Z,48.29
2023-04-03T09:42:13.276Z,48.06
2023-04-03T09:43:53.652Z,46.9
2023-04-03T09:45:34.146Z,47.49
2023-04-03T09:47:14.487Z,46.98
2023-04-03T09:49:05.107Z,43.91
2023-04-03T09:50:35.430Z,45.98
2023-04-03T09:52:15.773Z,46.21
2023-04-03T09:53:56.147Z,45.66
2023-04-03T09:55:36.526Z,48.49
2023-04-03T09:57:16.975Z,46.11
2023-04-03T09:58:57.404Z,46.96
2023-04-03T10:00:37.945Z,44.59
2023-04-03T10:02:18.131Z,46.17
2023-04-03T10:03:58.555Z,43.63
2023-04-03T10:05:38.968Z,45.29
2023-04-03T10:07:19.292Z,44.94
2023-04-03T10:08:59.651Z,44.36
2023-04-03T10:10:40.377Z,45.24
2023-04-03T10:12:20.422Z,44.62
2023-04-03T10:14:00.847Z,46.59
2023-04-03T10:15:41.195Z,44.32
2023-04-03T10:17:21.642Z,43.63
2023-04-03T10:19:02.121Z,43.01
2023-04-03T10:20:42.585Z,43.96
2023-04-03T10:22:23.026Z,44.93
2023-04-03T10:24:03.425Z,42.76
2023-04-03T10:25:43.783Z,44.09
2023-04-03T10:27:24.209Z,44.69
2023-04-03T10:29:04.671Z,43.34
2023-04-03T10:30:45.179Z,44.58
2023-04-03T10:32:25.486Z,45.37
2023-04-03T10:34:05.912Z,41.5
2023-04-03T10:35:46.143Z,41.47
2023-04-03T10:37:26.461Z,41.72
2023-04-03T10:39:06.895Z,40.79
2023-04-03T10:40:47.255Z,41.18
2023-04-03T10:42:27.658Z,42.98
2023-04-03T10:44:08.013Z,42.41
2023-04-03T10:45:48.523Z,44.9
2023-04-03T10:47:28.866Z,44.71
2023-04-03T10:49:09.255Z,44.85
2023-04-03T10:50:49.752Z,43.43
2023-04-03T10:52:30.119Z,44.62
2023-04-03T10:54:10.527Z,44.88
2023-04-03T10:55:50.948Z,48.39
2023-04-03T10:57:31.417Z,42.81
2023-04-03T10:59:11.838Z,43.42
2023-04-03T11:00:52.231Z,42.44
2023-04-03T11:02:32.801Z,38.87
2023-04-03T11:04:13.046Z,39.48
2023-04-03T11:05:53.444Z,39.26
2023-04-03T11:07:33.794Z,36.03
2023-04-03T11:09:14.158Z,38.27
2023-04-03T11:10:54.597Z,35.71
2023-04-03T11:12:35.068Z,37.63
2023-04-03T11:14:15.428Z,39.82
2023-04-03T11:15:55.931Z,41.32
2023-04-03T11:17:36.393Z,38.59
2023-04-03T11:19:16.711Z,38.61
2023-04-03T11:20:57.042Z,39.91
2023-04-03T11:22:37.474Z,40.36
2023-04-03T11:24:17.873Z,40.68
2023-04-03T11:25:58.177Z,42.68
2023-04-03T11:27:38.508Z,42.57
2023-04-03T11:29:32.209Z,42.89
2023-04-03T11:30:59.555Z,45.04
2023-04-03T11:32:39.839Z,44.79
2023-04-03T11:34:20.233Z,43.43
2023-04-03T11:36:00.705Z,41.42
2023-04-03T11:37:41.103Z,40.97
2023-04-03T11:39:21.553Z,43.92
2023-04-03T11:41:02.080Z,42.86
2023-04-03T11:42:42.478Z,45.93
2023-04-03T11:44:22.784Z,42.36
2023-04-03T11:46:03.160Z,43.88
2023-04-03T11:47:43.496Z,42.78
2023-04-03T11:49:23.846Z,44.12
2023-04-03T11:51:04.234Z,45.22
2023-04-03T11:52:44.941Z,43.24
2023-04-03T11:54:28.077Z,42.51
2023-04-03T11:56:05.325Z,39.77
2023-04-03T11:57:45.715Z,43.42
2023-04-03T11:59:26.104Z,40.79
2023-04-03T12:01:06.536Z,42.62
2023-04-03T12:02:54.330Z,41.43
2023-04-03T12:04:27.307Z,42.88
2023-04-03T12:06:07.697Z,43.05
2023-04-03T12:07:48.132Z,42.69
2023-04-03T12:09:28.579Z,41.47
2023-04-03T12:11:08.829Z,43.46
2023-04-03T12:12:49.223Z,43.34
2023-04-03T12:14:29.661Z,41.78
2023-04-03T12:16:10.068Z,43.43
2023-04-03T12:17:50.382Z,43.24
2023-04-03T12:19:41.213Z,40.63
2023-04-03T12:21:11.174Z,41.65
2023-04-03T12:22:51.618Z,40.6
2023-04-03T12:24:32.027Z,40.01
2023-04-03T12:26:12.481Z,39.45
2023-04-03T12:27:52.814Z,42.26
2023-04-03T12:29:33.140Z,41.95
2023-04-03T12:31:13.479Z,39.52
2023-04-03T12:33:05.712Z,39.55
2023-04-03T12:34:34.062Z,41.2
2023-04-03T12:36:14.421Z,43.33
2023-04-03T12:37:54.710Z,41.07
2023-04-03T12:39:35.109Z,40.98
2023-04-03T12:41:15.458Z,42.93
2023-04-03T12:42:55.817Z,42.63
2023-04-03T12:44:36.211Z,40.42
2023-04-03T12:46:16.692Z,40.36
2023-04-03T12:47:57.050Z,39.42
2023-04-03T12:49:37.398Z,42.35
2023-04-03T12:51:17.864Z,39.32
2023-04-03T12:52:58.148Z,39.85
2023-04-03T12:54:38.540Z,40.73
2023-04-03T12:56:19.031Z,38.94
2023-04-03T12:57:59.476Z,40.1
2023-04-03T12:59:39.860Z,37.54
2023-04-03T13:01:20.343Z,40.34
2023-04-03T13:03:00.748Z,36.62
2023-04-03T13:04:41.095Z,36.55
2023-04-03T13:06:21.521Z,36.83
2023-04-03T13:08:01.971Z,34.01
2023-04-03T13:09:42.397Z,35.44
2023-04-03T13:11:22.731Z,34.86
2023-04-03T13:13:03.100Z,33.62
2023-04-03T13:14:43.468Z,33.93
2023-04-03T13:16:23.946Z,34.79
2023-04-03T13:18:04.215Z,35.22
2023-04-03T13:19:44.574Z,33.57
2023-04-03T13:21:24.970Z,35.07
2023-04-03T13:23:05.346Z,35.57
2023-04-03T13:24:45.706Z,33.93
2023-04-03T13:26:26.135Z,37.63
2023-04-03T13:28:13.497Z,34.27
2023-04-03T13:29:46.865Z,36.51
2023-04-03T13:31:27.348Z,35.83
2023-04-03T13:33:07.570Z,36.68
2023-04-03T13:34:47.862Z,38.3
2023-04-03T13:36:28.168Z,36.93
2023-04-03T13:38:08.517Z,37.96
2023-04-03T13:39:48.891Z,42.07
2023-04-03T13:41:29.355Z,38.71
2023-04-03T13:43:09.739Z,37.57
2023-04-03T13:44:50.108Z,40.16
2023-04-03T13:46:30.503Z,38.55
2023-04-03T13:48:22.224Z,37.87
2023-04-03T13:49:51.194Z,37.77
2023-04-03T13:51:31.568Z,39.3
2023-04-03T13:53:11.979Z,39.27
2023-04-03T13:54:52.379Z,41.7
2023-04-03T13:56:32.758Z,41.19
2023-04-03T13:58:13.178Z,38.9
2023-04-03T13:59:53.525Z,38.75
2023-04-03T14:01:33.854Z,38.53
2023-04-03T14:03:14.137Z,37.36
2023-04-03T14:04:54.463Z,37.8
2023-04-03T14:06:34.743Z,36.07
2023-04-03T14:08:15.034Z,34.58
2023-04-03T14:09:55.436Z,33.39
2023-04-03T14:11:35.810Z,30.16
2023-04-03T14:13:16.259Z,33.32
2023-04-03T14:14:56.662Z,34.34
2023-04-03T14:16:37.095Z,35.25
2023-04-03T14:18:17.420Z,33.67
2023-04-03T14:19:57.846Z,33.33
2023-04-03T14:21:38.286Z,35.69
2023-04-03T14:23:18.604Z,36.04
2023-04-03T14:24:58.970Z,35.15
2023-04-03T14:26:39.396Z,36.8
2023-04-03T14:28:19.869Z,34.74
2023-04-03T14:30:00.310Z,34.41
2023-04-03T14:31:40.843Z,35.56
2023-04-03T14:33:21.174Z,38.38
2023-04-03T14:35:01.511Z,38.28
2023-04-03T14:36:41.954Z,35.87
2023-04-03T14:38:22.252Z,36.37
2023-04-03T14:40:02.669Z,39.68
2023-04-03T14:41:43.051Z,36.93
2023-04-03T14:43:23.400Z,36.96
2023-04-03T14:45:03.707Z,35.92
2023-04-03T14:48:24.380Z,33.93
2023-04-03T14:50:04.693Z,35.63
2023-04-03T14:51:45.043Z,34.58
2023-04-03T14:53:37.928Z,33.48
2023-04-03T14:55:05.824Z,36.32
2023-04-03T14:56:46.264Z,36.07
2023-04-03T14:58:26.711Z,35.99
2023-04-03T15:00:07.089Z,36.23
2023-04-03T15:01:47.518Z,36.66
2023-04-03T15:03:27.864Z,34.93
2023-04-03T15:05:08.174Z,33.27
2023-04-03T15:06:48.601Z,36.44
2023-04-03T15:08:29.049Z,36.16
2023-04-03T15:10:09.397Z,35.86
2023-04-03T15:11:49.799Z,37.6
2023-04-03T15:13:30.119Z,37.5
2023-04-03T15:15:10.482Z,39.47
2023-04-03T15:16:50.868Z,40.26
2023-04-03T15:18:31.283Z,41.25
2023-04-03T15:20:11.627Z,40.73
2023-04-03T15:21:52.081Z,40.99
2023-04-03T15:23:32.464Z,38.23
2023-04-03T15:25:12.890Z,39.15
2023-04-03T15:26:53.229Z,39.07
2023-04-03T15:28:33.606Z,38.59
2023-04-03T15:30:14.055Z,38.18
2023-04-03T15:31:54.801Z,39.42
2023-04-03T15:33:34.967Z,37.5
2023-04-03T15:35:15.275Z,36.43
2023-04-03T15:36:55.734Z,36.91
2023-04-03T15:38:36.062Z,35.85
2023-04-03T15:40:16.481Z,35.98
2023-04-03T15:41:56.830Z,36.5
2023-04-03T15:43:37.247Z,38.15
2023-04-03T15:45:17.648Z,36.76
2023-04-03T15:46:58.034Z,36.85
2023-04-03T15:48:38.371Z,37.68
2023-04-03T15:50:18.823Z,37.67
2023-04-03T15:51:59.222Z,37.81
2023-04-03T15:53:39.550Z,37.76
2023-04-03T15:55:19.930Z,37.97
2023-04-03T15:57:00.343Z,37.4
2023-04-03T15:58:40.642Z,37.97
2023-04-03T16:00:21.141Z,37.91
2023-04-03T16:02:01.591Z,39.72
2023-04-03T16:03:41.882Z,39.51
2023-04-03T16:05:22.248Z,42.03
2023-04-03T16:07:02.564Z,41.96
2023-04-03T16:08:42.986Z,40.33
2023-04-03T16:10:23.360Z,41.3
2023-04-03T16:12:03.711Z,42.3
2023-04-03T16:13:44.114Z,43.76
2023-04-03T16:15:24.563Z,42.57
2023-04-03T16:17:04.977Z,40.95
2023-04-03T16:18:45.413Z,41.3
2023-04-03T16:20:25.849Z,40.5
2023-04-03T16:22:06.223Z,41.74
2023-04-03T16:23:46.642Z,40.53
2023-04-03T16:25:26.984Z,39.96
2023-04-03T16:27:07.432Z,40.96
2023-04-03T16:28:47.813Z,42.57
2023-04-03T16:30:28.206Z,39.96
2023-04-03T16:32:08.566Z,41.27
2023-04-03T16:33:48.888Z,40.49
2023-04-03T16:35:29.286Z,42.37
2023-04-03T16:37:09.738Z,40.91
2023-04-03T16:38:49.985Z,41.48
2023-04-03T16:40:30.351Z,42.01
2023-04-03T16:42:10.662Z,43.22
2023-04-03T16:43:51.008Z,43.41
2023-04-03T16:45:31.422Z,42.44
2023-04-03T16:47:11.853Z,43.85
2023-04-03T16:48:52.040Z,43.24
2023-04-03T16:50:32.577Z,45.04
2023-04-03T16:52:12.957Z,45.33
2023-04-03T16:53:53.436Z,46.73
2023-04-03T16:55:33.769Z,44.8
2023-04-03T16:57:14.050Z,43.51
2023-04-03T16:58:54.351Z,43.49
2023-04-03T17:00:34.653Z,43.79
2023-04-03T17:02:15.054Z,46.11
2023-04-03T17:03:55.365Z,45.5
2023-04-03T17:05:35.619Z,45.23
2023-04-03T17:07:15.916Z,45.65
2023-04-03T17:08:56.225Z,46.51
2023-04-03T17:10:36.578Z,46.81
2023-04-03T17:12:17.044Z,47.17
2023-04-03T17:13:57.436Z,46.97
2023-04-03T17:15:37.824Z,47.88
2023-04-03T17:17:18.152Z,49.13
2023-04-03T17:18:58.591Z,47.86
2023-04-03T17:20:38.970Z,48.57
2023-04-03T17:22:19.354Z,47.87
2023-04-03T17:23:59.697Z,50
2023-04-03T17:25:40.265Z,49.97
2023-04-03T17:27:20.336Z,50.02
2023-04-03T17:29:00.726Z,50.09
2023-04-03T17:30:41.118Z,49.36
2023-04-03T17:32:21.646Z,50.35
2023-04-03T17:34:01.996Z,50.27
2023-04-03T17:35:42.382Z,50
2023-04-03T17:37:22.740Z,50.32
2023-04-03T17:39:03.084Z,51.09
2023-04-03T17:40:44.163Z,51.25
2023-04-03T17:42:23.904Z,51.67
2023-04-03T17:44:04.295Z,52.06
2023-04-03T17:45:44.629Z,52.87
2023-04-03T17:47:24.970Z,51.88
2023-04-03T17:49:05.457Z,51.93
2023-04-03T17:50:45.761Z,52.63
2023-04-03T17:52:26.120Z,52.96
2023-04-03T17:54:06.460Z,54.98
2023-04-03T17:55:46.925Z,54.43
2023-04-03T17:57:27.384Z,54.3
2023-04-03T17:59:07.788Z,54.36
2023-04-03T18:00:48.172Z,54.77
2023-04-03T18:02:28.567Z,56.06
2023-04-03T18:04:08.893Z,55.83
2023-04-03T18:05:49.283Z,57.03
2023-04-03T18:07:29.651Z,57.34
2023-04-03T18:09:09.988Z,56.98
2023-04-03T18:10:50.352Z,57.51
2023-04-03T18:12:30.671Z,60.12
2023-04-03T18:14:11.068Z,60.65
2023-04-03T18:15:51.502Z,60.53
2023-04-03T18:17:31.904Z,60.28
2023-04-03T18:19:23.040Z,60.86
2023-04-03T18:20:52.629Z,61.84
2023-04-03T18:22:32.989Z,62.31
2023-04-03T18:24:13.364Z,62.91
2023-04-03T18:25:53.714Z,62.95
2023-04-03T18:27:34.039Z,62.76
2023-04-03T18:29:14.403Z,62.83
2023-04-03T18:30:54.741Z,63.45
2023-04-03T18:32:35.173Z,64.59
2023-04-03T18:34:15.468Z,65.53
2023-04-03T18:35:55.788Z,66.45
2023-04-03T18:37:36.075Z,66.84
2023-04-03T18:39:16.390Z,67.16
2023-04-03T18:40:56.667Z,67.32
2023-04-03T18:42:36.967Z,67.57
2023-04-03T18:44:17.279Z,68.35
2023-04-03T18:45:57.606Z,68.59
2023-04-03T18:47:37.900Z,69.16
2023-04-03T18:49:18.243Z,69.5
2023-04-03T18:50:58.516Z,71.4
2023-04-03T18:52:38.813Z,72.29
2023-04-03T18:54:19.117Z,72.13
2023-04-03T18:55:59.420Z,73.03
2023-04-03T18:57:39.716Z,73.59
2023-04-03T18:59:20.079Z,74.4
2023-04-03T19:01:00.339Z,74.14
2023-04-03T19:02:40.621Z,75.04
2023-04-03T19:04:20.916Z,76.01
2023-04-03T19:06:01.174Z,76.17
2023-04-03T19:07:41.489Z,75.92
2023-04-03T19:09:21.842Z,75.91
2023-04-03T19:11:02.140Z,76
2023-04-03T19:12:42.426Z,76.03
2023-04-03T19:14:22.760Z,76.8
2023-04-03T19:16:03.016Z,77.29
2023-04-03T19:17:43.368Z,78.08
2023-04-03T19:19:23.636Z,78.42
2023-04-03T19:21:03.933Z,79.25
2023-04-03T19:22:44.215Z,79.35
2023-04-03T19:24:24.554Z,79.69
2023-04-03T19:26:04.877Z,79.24
2023-04-03T19:27:45.271Z,80.09
2023-04-03T19:29:25.631Z,80.76
2023-04-03T19:31:05.946Z,80.89
2023-04-03T19:32:46.300Z,81.22
2023-04-03T19:34:26.654Z,81.66
2023-04-03T19:36:07.117Z,81.82
2023-04-03T19:37:47.502Z,81.93
2023-04-03T19:39:27.934Z,81.59
2023-04-03T19:41:08.320Z,81.62
2023-04-03T19:42:48.709Z,81.7
2023-04-03T19:44:29.109Z,81.78
2023-04-03T19:46:09.555Z,81.75
2023-04-03T19:47:49.987Z,82.39
2023-04-03T19:49:30.409Z,83.07
2023-04-03T19:51:10.729Z,83.3
2023-04-03T19:52:51.131Z,84.07
2023-04-03T19:54:31.493Z,84.11
2023-04-03T19:56:11.850Z,84.3
2023-04-03T19:57:52.250Z,84.49
2023-04-03T19:59:32.674Z,84.75
2023-04-03T20:01:13.082Z,85.24
2023-04-03T20:02:53.533Z,84.88
2023-04-03T20:04:33.904Z,85.19
2023-04-03T20:06:14.100Z,85.15
2023-04-03T20:07:54.410Z,85.85
2023-04-03T20:09:34.720Z,86.06
2023-04-03T20:11:15.054Z,86.06
2023-04-03T20:12:55.308Z,86.3
2023-04-03T20:14:35.644Z,86.62
2023-04-03T20:16:16.118Z,86.71
2023-04-03T20:17:56.491Z,86.87
2023-04-03T20:19:36.877Z,86.77
2023-04-03T20:21:17.187Z,86.23
2023-04-03T20:22:57.581Z,87.07
2023-04-03T20:24:37.975Z,86.9
2023-04-03T20:26:18.452Z,86.95
2023-04-03T20:27:58.807Z,87.19
2023-04-03T20:29:39.150Z,87.43
2023-04-03T20:31:19.544Z,87.81
2023-04-03T20:32:59.896Z,88.46
2023-04-03T20:34:40.582Z,88.62
2023-04-03T20:36:20.766Z,88.92
2023-04-03T20:38:01.121Z,88.61
2023-04-03T20:39:41.561Z,88.19
2023-04-03T20:41:21.990Z,87.97
2023-04-03T20:43:02.427Z,88.01
2023-04-03T20:44:42.701Z,88.14
2023-04-03T20:46:23.066Z,88.44
2023-04-03T20:48:03.435Z,88.56
2023-04-03T20:49:43.779Z,88.98
2023-04-03T20:51:24.187Z,89.37
2023-04-03T20:53:04.538Z,89.47
2023-04-03T20:54:44.936Z,89.57
2023-04-03T20:56:25.239Z,88.9
2023-04-03T20:58:05.573Z,88.28
2023-04-03T20:59:45.963Z,87.95
2023-04-03T21:01:26.419Z,88.23
2023-04-03T21:03:06.834Z,88.21
2023-04-03T21:04:47.188Z,88.22
2023-04-03T21:06:27.463Z,89.66
2023-04-03T21:08:07.832Z,90.15
2023-04-03T21:09:48.196Z,90.16
2023-04-03T21:11:28.629Z,90.43
2023-04-03T21:13:09.053Z,89.83
2023-04-03T21:14:49.483Z,89.15
2023-04-03T21:16:29.952Z,89.87
2023-04-03T21:18:10.233Z,90.08
2023-04-03T21:19:50.595Z,90.14
2023-04-03T21:21:31.035Z,90.55
2023-04-03T21:23:11.435Z,90.07
2023-04-03T21:24:51.829Z,89.99
2023-04-03T21:26:32.173Z,90.66
2023-04-03T21:28:12.564Z,91.7
2023-04-03T21:29:53.013Z,91.9
2023-04-03T21:31:33.507Z,91.66
2023-04-03T21:33:14.093Z,91.67
2023-04-03T21:34:54.250Z,91.52
2023-04-03T21:36:34.702Z,91.27
2023-04-03T21:38:15.031Z,91.96